Hauptseite
METAR-TAF:

METAR-TAF

Flughäfen :

Jakutsk, Russland

Flughafen Jakutsk

Breite: 62-01N, Länge: 129-43E, Höhe: 103 m

Beobachtung

Neuester Wetterbericht von vor 34 Minuten, um 23:30 UTC
Wind 2 kt aus Nord/Nordwest
Temperatur -41°C
Luftfeuchtigkeit 58%
Luftdruck 1018 hPa
Sichtweite: 0300 m
Nebel

METAR: UEEE 172330Z 34001MPS 0450 0300NE R23L/0550N FG NSC M41/M46 Q1018 R23L/490150 NOSIG RMK QFE754

Zeit: 09:04 (00:04 UTC)

Prognose

Neuester Wetterbericht von vor 1 Stunde und 4 Minuten, um 23:00 UTC
Gültige Prognose vom 18 um 00 UTC bis 19 um 06 UTC
Wind 2 kt aus unterschiedlichen Richtungen
Sichtweite: 0700 m
Nebel
Zeitweise
vom 18 um 00 UTC bis 18 um 12 UTC
Sichtweite: 0300 m
in der Höhe von 200 ft
Nebel

TAF: UEEE 172300Z 1800/1906 VRB01MPS 0700 FG NSC TXM37/1806Z TNM42/1800Z TEMPO 1800/1812 0300 FG VV002

Wetterbeobachtungen und Prognosen von mehr als 4000 Flughäfen (METAR und TAF Bericht).

Die verfügbaren Stationen werden durch gelbe und rote Markierungen auf der Karte dargestellt.

Führen Sie die Maus auf sie, um den Namen der Station zu sehen.

Darauf klicken, um die Beobachtung von Wetterbeobachtungen und Prognosen zu sehen.

Um die Karte zu ändern : klicken Sie auf den grünen Tasten mit einem schwarzen Kreuz Zum Vergrößern, auf den grünen Button mit einem Gedankenstrich zu verkleinern, oder auf die grünen Pfeile für benachbarte Karten.


METAR-TAF: